createdAt,value
2024-02-12T00:00:45.142Z,58.85
2024-02-12T00:02:15.539Z,59.16
2024-02-12T00:03:23.033Z,59.06
2024-02-12T00:04:30.780Z,59.02
2024-02-12T00:05:39.200Z,59.06
2024-02-12T00:06:46.550Z,59.18
2024-02-12T00:07:54.473Z,59.46
2024-02-12T00:09:01.343Z,59.30
2024-02-12T00:10:12.469Z,59.45
2024-02-12T00:11:19.999Z,59.47
2024-02-12T00:12:26.758Z,59.73
2024-02-12T00:13:35.530Z,59.70
2024-02-12T00:14:42.760Z,59.67
2024-02-12T00:15:51.102Z,59.61
2024-02-12T00:16:58.669Z,59.72
2024-02-12T00:18:07.883Z,59.93
2024-02-12T00:19:15.027Z,59.94
2024-02-12T00:20:22.162Z,59.99
2024-02-12T00:21:30.571Z,60.11
2024-02-12T00:22:38.396Z,60.13
2024-02-12T00:23:46.712Z,60.25
2024-02-12T00:24:53.746Z,60.30
2024-02-12T00:26:01.024Z,60.14
2024-02-12T00:27:09.407Z,60.47
2024-02-12T00:28:16.253Z,60.49
2024-02-12T00:29:24.375Z,60.45
2024-02-12T00:30:34.414Z,60.40
2024-02-12T00:31:41.139Z,60.48
2024-02-12T00:32:48.465Z,60.65
2024-02-12T00:33:56.257Z,60.69
2024-02-12T00:35:05.994Z,60.90
2024-02-12T00:36:14.795Z,62.12
2024-02-12T00:37:21.917Z,61.85
2024-02-12T00:38:29.489Z,61.60
2024-02-12T00:39:36.704Z,61.34
2024-02-12T00:40:43.361Z,61.35
2024-02-12T00:41:54.769Z,61.14
2024-02-12T00:43:01.872Z,60.87
2024-02-12T00:44:09.411Z,60.82
2024-02-12T00:45:19.578Z,60.93
2024-02-12T00:46:27.132Z,62.78
2024-02-12T00:47:36.116Z,63.78
2024-02-12T00:48:48.279Z,63.05
2024-02-12T00:49:55.910Z,62.69
2024-02-12T00:51:04.736Z,63.81
2024-02-12T00:52:12.449Z,63.46
2024-02-12T00:53:20.688Z,63.37
2024-02-12T00:54:31.186Z,63.23
2024-02-12T00:55:40.760Z,63.59
2024-02-12T00:56:48.822Z,63.13
2024-02-12T00:57:55.793Z,62.81
2024-02-12T00:59:04.661Z,62.40
2024-02-12T01:00:15.505Z,62.02
2024-02-12T01:01:22.369Z,61.79
2024-02-12T01:02:31.632Z,61.72
2024-02-12T01:03:38.431Z,61.58
2024-02-12T01:04:45.606Z,61.39
2024-02-12T01:05:54.227Z,61.02
2024-02-12T01:07:00.959Z,60.96
2024-02-12T01:08:08.814Z,60.74
2024-02-12T01:09:15.750Z,60.98
2024-02-12T01:10:23.347Z,60.86
2024-02-12T01:11:30.603Z,60.49
2024-02-12T01:12:37.998Z,60.62
2024-02-12T01:13:45.422Z,60.38
2024-02-12T01:14:51.991Z,60.32
2024-02-12T01:15:59.038Z,60.35
2024-02-12T01:17:06.048Z,60.34
2024-02-12T01:18:13.463Z,60.68
2024-02-12T01:19:21.223Z,60.46
2024-02-12T01:20:27.897Z,60.56
2024-02-12T01:21:35.320Z,60.55
2024-02-12T01:22:42.229Z,60.72
2024-02-12T01:23:49.023Z,60.64
2024-02-12T01:24:56.165Z,60.70
2024-02-12T01:26:03.083Z,60.47
2024-02-12T01:27:13.706Z,60.46
2024-02-12T01:28:20.245Z,60.61
2024-02-12T01:29:29.204Z,60.52
2024-02-12T01:30:36.538Z,60.55
2024-02-12T01:31:43.007Z,60.46
2024-02-12T01:32:49.651Z,60.48
2024-02-12T01:33:56.887Z,60.41
2024-02-12T01:35:03.801Z,60.42
2024-02-12T01:36:12.683Z,60.33
2024-02-12T01:37:19.132Z,60.08
2024-02-12T01:38:25.484Z,60.39
2024-02-12T01:39:32.530Z,60.24
2024-02-12T01:40:39.104Z,59.99
2024-02-12T01:41:46.193Z,59.70
2024-02-12T01:42:55.154Z,59.62
2024-02-12T01:44:03.414Z,59.67
2024-02-12T01:45:16.759Z,59.38
2024-02-12T01:46:23.320Z,59.47
2024-02-12T01:47:35.104Z,59.57
2024-02-12T01:48:42.713Z,59.89
2024-02-12T01:49:51.043Z,59.80
2024-02-12T01:50:59.452Z,59.54
2024-02-12T01:52:07.241Z,59.76
2024-02-12T01:53:14.631Z,59.76
2024-02-12T01:54:22.692Z,59.70
2024-02-12T01:55:31.151Z,59.67
2024-02-12T01:56:39.452Z,59.89
2024-02-12T01:57:51.890Z,59.86
2024-02-12T01:59:02.038Z,60.04
2024-02-12T02:00:13.411Z,59.90
2024-02-12T02:01:20.493Z,60.13
2024-02-12T02:02:27.207Z,60.04
2024-02-12T02:03:34.764Z,60.18
2024-02-12T02:04:42.283Z,60.45
2024-02-12T02:05:49.044Z,60.76
2024-02-12T02:06:56.587Z,60.60
2024-02-12T02:08:03.551Z,60.96
2024-02-12T02:09:10.805Z,60.92
2024-02-12T02:10:17.283Z,61.14
2024-02-12T02:11:28.589Z,61.32
2024-02-12T02:12:35.904Z,61.03
2024-02-12T02:13:45.471Z,61.03
2024-02-12T02:14:52.520Z,61.04
2024-02-12T02:15:58.849Z,61.29
2024-02-12T02:17:06.638Z,60.92
2024-02-12T02:18:13.348Z,61.08
2024-02-12T02:19:20.992Z,61.11
2024-02-12T02:20:28.515Z,61.23
2024-02-12T02:21:35.261Z,61.29
2024-02-12T02:22:41.752Z,61.04
2024-02-12T02:23:48.509Z,60.89
2024-02-12T02:24:55.288Z,60.93
2024-02-12T02:26:02.017Z,60.80
2024-02-12T02:27:11.066Z,60.74
2024-02-12T02:28:17.464Z,61.04
2024-02-12T02:29:24.149Z,60.74
2024-02-12T02:30:30.435Z,60.98
2024-02-12T02:31:37.503Z,60.80
2024-02-12T02:32:44.788Z,60.78
2024-02-12T02:33:51.914Z,60.63
2024-02-12T02:34:59.328Z,60.59
2024-02-12T02:36:07.034Z,60.38
2024-02-12T02:37:18.970Z,60.33
2024-02-12T02:38:25.364Z,60.18
2024-02-12T02:39:32.220Z,60.32
2024-02-12T02:40:39.439Z,60.45
2024-02-12T02:41:47.530Z,60.15
2024-02-12T02:42:54.593Z,60.16
2024-02-12T02:44:01.071Z,60.34
2024-02-12T02:45:11.290Z,60.40
2024-02-12T02:46:28.238Z,60.27
2024-02-12T02:47:37.787Z,60.49
2024-02-12T02:48:44.933Z,60.43
2024-02-12T02:49:51.676Z,60.69
2024-02-12T02:50:58.863Z,60.58
2024-02-12T02:52:06.778Z,60.58
2024-02-12T02:53:13.484Z,60.69
2024-02-12T02:54:23.214Z,60.57
2024-02-12T02:55:30.186Z,60.50
2024-02-12T02:56:37.281Z,60.74
2024-02-12T02:57:45.858Z,60.73
2024-02-12T02:58:53.299Z,60.87
2024-02-12T03:00:00.741Z,60.98
2024-02-12T03:01:07.658Z,60.87
2024-02-12T03:02:15.508Z,60.71
2024-02-12T03:03:24.048Z,61.02
2024-02-12T03:04:34.799Z,61.00
2024-02-12T03:05:41.882Z,60.91
2024-02-12T03:06:50.114Z,61.13
2024-02-12T03:07:57.563Z,60.92
2024-02-12T03:09:05.079Z,61.08
2024-02-12T03:10:15.660Z,61.22
2024-02-12T03:11:28.513Z,61.13
2024-02-12T03:12:36.535Z,61.23
2024-02-12T03:13:45.597Z,61.44
2024-02-12T03:14:52.508Z,61.52
2024-02-12T03:15:59.480Z,61.57
2024-02-12T03:17:08.524Z,61.64
2024-02-12T03:18:21.264Z,61.62
2024-02-12T03:19:27.718Z,61.70
2024-02-12T03:20:34.796Z,61.98
2024-02-12T03:21:41.595Z,61.84
2024-02-12T03:22:48.117Z,61.67
2024-02-12T03:23:54.990Z,61.42
2024-02-12T03:25:02.072Z,61.68
2024-02-12T03:26:10.233Z,61.67
2024-02-12T03:27:16.814Z,61.82
2024-02-12T03:28:24.164Z,62.08
2024-02-12T03:29:33.006Z,61.97
2024-02-12T03:30:40.866Z,61.90
2024-02-12T03:31:47.620Z,62.13
2024-02-12T03:32:54.706Z,62.30
2024-02-12T03:34:02.769Z,62.14
2024-02-12T03:35:11.300Z,62.23
2024-02-12T03:36:18.249Z,62.31
2024-02-12T03:37:27.737Z,62.29
2024-02-12T03:38:34.428Z,62.60
2024-02-12T03:39:41.189Z,62.44
2024-02-12T03:40:47.907Z,62.61
2024-02-12T03:41:55.498Z,62.38
2024-02-12T03:43:06.407Z,62.66
2024-02-12T03:44:13.662Z,62.50
2024-02-12T03:45:22.138Z,62.56
2024-02-12T03:46:42.020Z,62.64
2024-02-12T03:47:49.919Z,62.64
2024-02-12T03:49:15.439Z,62.89
2024-02-12T03:50:41.961Z,62.80
2024-02-12T03:52:07.962Z,62.66
2024-02-12T03:53:40.073Z,62.70
2024-02-12T03:55:05.937Z,62.59
2024-02-12T03:56:31.184Z,62.84
2024-02-12T03:58:00.615Z,62.80
2024-02-12T03:59:25.919Z,62.79
2024-02-12T04:00:34.068Z,62.84
2024-02-12T04:01:42.980Z,63.02
2024-02-12T04:02:48.325Z,63.06
2024-02-12T04:03:55.487Z,63.09
2024-02-12T04:05:02.964Z,63.12
2024-02-12T04:06:14.205Z,63.12
2024-02-12T04:07:26.394Z,63.17
2024-02-12T04:08:34.476Z,63.12
2024-02-12T04:09:44.046Z,63.23
2024-02-12T04:10:50.665Z,63.20
2024-02-12T04:11:57.348Z,63.28
2024-02-12T04:13:05.577Z,63.26
2024-02-12T04:14:13.997Z,63.29
2024-02-12T04:15:21.969Z,63.14
2024-02-12T04:16:29.828Z,63.27
2024-02-12T04:17:36.416Z,63.32
2024-02-12T04:18:44.786Z,63.16
2024-02-12T04:19:51.659Z,62.99
2024-02-12T04:21:01.192Z,62.94
2024-02-12T04:22:11.590Z,62.89
2024-02-12T04:23:20.786Z,62.74
2024-02-12T04:24:30.733Z,63.00
2024-02-12T04:25:38.811Z,62.95
2024-02-12T04:26:46.328Z,62.68
2024-02-12T04:27:56.529Z,62.89
2024-02-12T04:29:03.186Z,62.95
2024-02-12T04:30:14.072Z,62.77
2024-02-12T04:31:22.365Z,62.79
2024-02-12T04:32:29.406Z,62.84
2024-02-12T04:33:38.820Z,62.67
2024-02-12T04:34:45.910Z,62.67
2024-02-12T04:35:52.380Z,62.50
2024-02-12T04:36:58.824Z,62.79
2024-02-12T04:38:08.401Z,62.68
2024-02-12T04:39:17.948Z,62.77
2024-02-12T04:40:23.323Z,62.39
2024-02-12T04:41:30.110Z,62.58
2024-02-12T04:42:36.549Z,62.51
2024-02-12T04:43:43.677Z,62.69
2024-02-12T04:44:49.973Z,62.60
2024-02-12T04:45:56.584Z,62.30
2024-02-12T04:47:06.500Z,62.28
2024-02-12T04:48:16.346Z,61.97
2024-02-12T04:49:23.808Z,61.49
2024-02-12T04:50:31.631Z,61.30
2024-02-12T04:51:38.550Z,61.53
2024-02-12T04:52:45.240Z,61.62
2024-02-12T04:53:53.930Z,61.59
2024-02-12T04:55:01.033Z,61.61
2024-02-12T04:56:09.625Z,61.65
2024-02-12T04:57:16.876Z,62.00
2024-02-12T04:58:24.599Z,62.07
2024-02-12T04:59:32.210Z,62.02
2024-02-12T05:00:40.284Z,61.82
2024-02-12T05:01:48.549Z,61.44
2024-02-12T05:02:56.239Z,61.43
2024-02-12T05:04:02.934Z,61.92
2024-02-12T05:05:13.345Z,61.91
2024-02-12T05:06:20.425Z,61.90
2024-02-12T05:07:29.190Z,61.90
2024-02-12T05:08:36.534Z,61.85
2024-02-12T05:09:45.023Z,61.93
2024-02-12T05:10:53.040Z,62.09
2024-02-12T05:11:59.694Z,61.72
2024-02-12T05:13:07.669Z,61.74
2024-02-12T05:14:14.685Z,61.88
2024-02-12T05:15:21.228Z,61.84
2024-02-12T05:16:31.938Z,61.72
2024-02-12T05:18:08.464Z,62.03
2024-02-12T05:19:34.126Z,61.94
2024-02-12T05:21:00.479Z,62.19
2024-02-12T05:22:25.884Z,62.17
2024-02-12T05:23:34.309Z,62.28
2024-02-12T05:24:41.335Z,62.28
2024-02-12T05:25:49.042Z,62.38
2024-02-12T05:26:59.498Z,62.24
2024-02-12T05:28:06.562Z,62.22
2024-02-12T05:29:13.228Z,62.36
2024-02-12T05:30:21.035Z,62.33
2024-02-12T05:31:28.778Z,62.37
2024-02-12T05:32:36.150Z,62.42
2024-02-12T05:33:42.949Z,62.36
2024-02-12T05:34:52.855Z,62.28
2024-02-12T05:36:01.440Z,62.29
2024-02-12T05:37:08.558Z,62.50
2024-02-12T05:38:15.312Z,62.29
2024-02-12T05:39:25.228Z,62.33
2024-02-12T05:40:32.640Z,62.33
2024-02-12T05:41:39.566Z,62.34
2024-02-12T05:42:46.099Z,62.40
2024-02-12T05:43:54.843Z,62.16
2024-02-12T05:45:02.000Z,62.47
2024-02-12T05:46:08.923Z,62.92
2024-02-12T05:47:16.044Z,62.99
2024-02-12T05:48:23.293Z,62.88
2024-02-12T05:49:34.694Z,63.07
2024-02-12T05:50:41.740Z,63.16
2024-02-12T05:51:49.934Z,63.21
2024-02-12T05:52:57.082Z,63.28
2024-02-12T05:54:04.449Z,63.31
2024-02-12T05:55:11.569Z,63.31
2024-02-12T05:56:18.200Z,63.80
2024-02-12T05:57:26.183Z,63.73
2024-02-12T05:58:33.814Z,64.03
2024-02-12T05:59:40.985Z,63.98
2024-02-12T06:00:48.841Z,64.01
2024-02-12T06:01:55.601Z,64.17
2024-02-12T06:03:03.222Z,64.28
2024-02-12T06:04:10.991Z,64.41
2024-02-12T06:05:18.087Z,64.78
2024-02-12T06:06:26.873Z,64.92
2024-02-12T06:07:34.994Z,64.63
2024-02-12T06:08:42.949Z,64.98
2024-02-12T06:09:50.194Z,64.92
2024-02-12T06:10:56.848Z,65.19
2024-02-12T06:12:06.060Z,65.27
2024-02-12T06:13:12.559Z,65.47
2024-02-12T06:14:19.523Z,65.66
2024-02-12T06:15:25.961Z,65.69
2024-02-12T06:16:32.780Z,65.33
2024-02-12T06:17:39.459Z,65.10
2024-02-12T06:18:48.095Z,65.14
2024-02-12T06:19:53.395Z,65.28
2024-02-12T06:21:00.251Z,65.54
2024-02-12T06:22:07.344Z,65.26
2024-02-12T06:23:15.040Z,65.51
2024-02-12T06:24:23.167Z,65.28
2024-02-12T06:25:29.766Z,65.47
2024-02-12T06:26:37.202Z,65.50
2024-02-12T06:27:45.973Z,65.30
2024-02-12T06:28:52.646Z,65.35
2024-02-12T06:29:59.408Z,65.41
2024-02-12T06:31:07.191Z,65.32
2024-02-12T06:32:17.278Z,65.41
2024-02-12T06:33:23.962Z,65.38
2024-02-12T06:34:33.450Z,65.39
2024-02-12T06:35:39.807Z,65.26
2024-02-12T06:36:48.212Z,65.01
2024-02-12T06:37:54.678Z,65.15
2024-02-12T06:39:01.276Z,65.23
2024-02-12T06:40:14.237Z,65.12
2024-02-12T06:41:22.087Z,64.95
2024-02-12T06:42:30.322Z,65.13
2024-02-12T06:43:37.153Z,65.00
2024-02-12T06:44:44.258Z,64.80
2024-02-12T06:45:51.728Z,65.17
2024-02-12T06:46:58.332Z,65.08
2024-02-12T06:48:06.734Z,64.77
2024-02-12T06:49:14.751Z,64.78
2024-02-12T06:50:21.874Z,64.59
2024-02-12T06:51:28.532Z,64.61
2024-02-12T06:52:35.773Z,64.61
2024-02-12T06:53:46.230Z,64.65
2024-02-12T06:54:57.617Z,64.34
2024-02-12T06:56:06.995Z,64.21
2024-02-12T06:57:14.179Z,64.09
2024-02-12T06:58:21.828Z,64.17
2024-02-12T06:59:28.805Z,63.96
2024-02-12T07:00:36.619Z,64.22
2024-02-12T07:01:44.246Z,63.69
2024-02-12T07:02:51.104Z,63.60
2024-02-12T07:03:59.197Z,63.76
2024-02-12T07:05:06.746Z,63.42
2024-02-12T07:06:14.014Z,63.09
2024-02-12T07:07:22.534Z,63.06
2024-02-12T07:08:29.020Z,63.03
2024-02-12T07:09:37.645Z,62.96
2024-02-12T07:10:45.805Z,62.65
2024-02-12T07:11:53.321Z,62.75
2024-02-12T07:12:59.883Z,62.66
2024-02-12T07:14:06.689Z,62.21
2024-02-12T07:15:15.861Z,62.01
2024-02-12T07:16:26.183Z,61.90
2024-02-12T07:17:33.925Z,61.63
2024-02-12T07:18:42.879Z,61.43
2024-02-12T07:19:52.056Z,61.20
2024-02-12T07:20:58.649Z,61.10
2024-02-12T07:22:06.223Z,60.83
2024-02-12T07:23:13.096Z,60.71
2024-02-12T07:24:19.552Z,60.73
2024-02-12T07:25:27.640Z,60.53
2024-02-12T07:26:33.961Z,60.50
2024-02-12T07:27:41.032Z,60.32
2024-02-12T07:28:52.613Z,60.23
2024-02-12T07:30:01.325Z,60.20
2024-02-12T07:31:09.624Z,60.18
2024-02-12T07:32:19.179Z,60.02
2024-02-12T07:33:26.586Z,60.00
2024-02-12T07:34:33.780Z,59.78
2024-02-12T07:35:40.608Z,59.58
2024-02-12T07:36:47.642Z,59.65
2024-02-12T07:37:55.153Z,59.45
2024-02-12T07:39:01.981Z,59.30
2024-02-12T07:40:12.726Z,59.22
2024-02-12T07:41:20.156Z,58.86
2024-02-12T07:42:29.770Z,58.78
2024-02-12T07:43:37.491Z,58.31
2024-02-12T07:44:44.314Z,58.31
2024-02-12T07:45:53.959Z,58.18
2024-02-12T07:47:01.597Z,57.98
2024-02-12T07:48:10.570Z,57.76
2024-02-12T07:49:19.258Z,57.55
2024-02-12T07:50:25.910Z,57.45
2024-02-12T07:51:32.716Z,57.20
2024-02-12T07:52:39.719Z,57.07
2024-02-12T07:53:48.199Z,57.00
2024-02-12T07:54:53.532Z,56.87
2024-02-12T07:56:00.258Z,56.71
2024-02-12T07:57:09.273Z,56.56
2024-02-12T07:58:15.889Z,56.44
2024-02-12T07:59:22.570Z,56.29
2024-02-12T08:00:30.844Z,55.80
2024-02-12T08:01:37.831Z,55.68
2024-02-12T08:02:45.105Z,55.36
2024-02-12T08:03:52.154Z,55.26
2024-02-12T08:05:01.543Z,55.58
2024-02-12T08:06:11.155Z,55.51
2024-02-12T08:07:17.776Z,55.08
2024-02-12T08:08:24.760Z,55.30
2024-02-12T08:09:31.602Z,55.40
2024-02-12T08:10:38.633Z,55.34
2024-02-12T08:11:46.368Z,55.22
2024-02-12T08:12:54.451Z,55.28
2024-02-12T08:14:01.112Z,55.24
2024-02-12T08:15:12.383Z,55.18
2024-02-12T08:16:23.130Z,55.17
2024-02-12T08:17:31.721Z,54.82
2024-02-12T08:18:39.050Z,54.52
2024-02-12T08:19:47.136Z,54.51
2024-02-12T08:20:55.626Z,54.49
2024-02-12T08:22:03.830Z,54.09
2024-02-12T08:23:10.890Z,53.85
2024-02-12T08:24:19.201Z,53.44
2024-02-12T08:25:27.111Z,53.57
2024-02-12T08:26:34.490Z,53.67
2024-02-12T08:27:41.847Z,53.24
2024-02-12T08:28:49.542Z,53.18
2024-02-12T08:29:56.384Z,53.01
2024-02-12T08:31:03.940Z,52.91
2024-02-12T08:32:13.197Z,52.65
2024-02-12T08:33:20.024Z,52.68
2024-02-12T08:34:26.959Z,52.82
2024-02-12T08:35:34.092Z,52.53
2024-02-12T08:36:46.124Z,52.64
2024-02-12T08:37:53.119Z,52.77
2024-02-12T08:38:59.999Z,52.74
2024-02-12T08:40:14.611Z,52.53
2024-02-12T08:41:26.574Z,52.42
2024-02-12T08:42:34.534Z,52.56
2024-02-12T08:43:43.806Z,52.60
2024-02-12T08:44:52.836Z,52.79
2024-02-12T08:46:02.449Z,52.68
2024-02-12T08:47:10.672Z,52.69
2024-02-12T08:48:21.918Z,52.60
2024-02-12T08:49:29.759Z,52.13
2024-02-12T08:50:38.905Z,51.92
2024-02-12T08:51:49.725Z,51.79
2024-02-12T08:52:56.992Z,51.70
2024-02-12T08:54:03.490Z,51.25
2024-02-12T08:55:14.786Z,50.32
2024-02-12T08:56:22.032Z,49.79
2024-02-12T08:57:30.798Z,49.95
2024-02-12T08:58:39.538Z,49.65
2024-02-12T08:59:47.063Z,49.39
2024-02-12T09:00:54.965Z,49.30
2024-02-12T09:02:02.562Z,49.03
2024-02-12T09:03:09.451Z,48.79
2024-02-12T09:04:17.085Z,48.60
2024-02-12T09:05:24.223Z,48.75
2024-02-12T09:06:31.191Z,48.85
2024-02-12T09:07:37.880Z,48.60
2024-02-12T09:08:47.301Z,48.59
2024-02-12T09:09:55.440Z,48.08
2024-02-12T09:11:02.295Z,47.87
2024-02-12T09:12:12.452Z,47.92
2024-02-12T09:13:19.125Z,47.82
2024-02-12T09:14:26.406Z,47.42
2024-02-12T09:15:33.701Z,47.15
2024-02-12T09:16:41.972Z,46.81
2024-02-12T09:17:48.974Z,46.58
2024-02-12T09:18:58.662Z,46.35
2024-02-12T09:20:08.312Z,46.18
2024-02-12T09:21:14.992Z,46.00
2024-02-12T09:22:21.837Z,45.80
2024-02-12T09:23:29.400Z,45.44
2024-02-12T09:24:40.001Z,45.71
2024-02-12T09:25:47.783Z,45.55
2024-02-12T09:26:54.736Z,45.62
2024-02-12T09:28:01.153Z,45.67
2024-02-12T09:29:09.131Z,45.94
2024-02-12T09:30:19.756Z,46.12
2024-02-12T09:31:28.900Z,46.09
2024-02-12T09:32:35.778Z,46.24
2024-02-12T09:33:42.426Z,46.46
2024-02-12T09:34:48.800Z,46.60
2024-02-12T09:35:55.752Z,46.58
2024-02-12T09:37:02.808Z,46.27
2024-02-12T09:38:09.893Z,46.42
2024-02-12T09:39:18.781Z,46.71
2024-02-12T09:40:27.540Z,46.49
2024-02-12T09:41:39.089Z,46.55
2024-02-12T09:42:49.051Z,46.66
2024-02-12T09:43:57.520Z,46.86
2024-02-12T09:45:12.989Z,47.03
2024-02-12T09:46:20.699Z,47.21
2024-02-12T09:47:28.594Z,47.48
2024-02-12T09:48:36.677Z,47.45
2024-02-12T09:49:45.583Z,47.45
2024-02-12T09:50:53.936Z,47.48
2024-02-12T09:52:02.846Z,47.48
2024-02-12T09:53:14.464Z,47.36
2024-02-12T09:54:23.344Z,47.23
2024-02-12T09:55:33.199Z,47.03
2024-02-12T09:56:40.368Z,47.06
2024-02-12T09:57:47.174Z,46.72
2024-02-12T09:58:53.860Z,46.77
2024-02-12T10:00:00.862Z,46.81
2024-02-12T10:01:09.268Z,46.77
2024-02-12T10:02:16.508Z,46.75
2024-02-12T10:03:23.611Z,46.59
2024-02-12T10:04:31.084Z,46.63
2024-02-12T10:05:42.488Z,46.27
2024-02-12T10:06:59.006Z,46.43
2024-02-12T10:08:18.833Z,46.10
2024-02-12T10:09:26.367Z,45.59
2024-02-12T10:10:37.175Z,45.47
2024-02-12T10:11:44.444Z,45.42
2024-02-12T10:12:57.057Z,45.36
2024-02-12T10:14:06.168Z,45.44
2024-02-12T10:15:15.425Z,44.76
2024-02-12T10:16:27.046Z,44.45
2024-02-12T10:17:34.618Z,44.46
2024-02-12T10:18:44.947Z,44.41
2024-02-12T10:19:51.414Z,43.95
2024-02-12T10:20:58.203Z,43.87
2024-02-12T10:22:05.215Z,43.87
2024-02-12T10:23:21.926Z,44.21
2024-02-12T10:24:28.682Z,44.33
2024-02-12T10:25:40.816Z,44.54
2024-02-12T10:26:50.649Z,44.41
2024-02-12T10:27:57.540Z,44.67
2024-02-12T10:29:06.117Z,44.67
2024-02-12T10:30:19.661Z,44.58
2024-02-12T10:31:30.282Z,44.40
2024-02-12T10:32:39.982Z,44.27
2024-02-12T10:33:47.555Z,44.45
2024-02-12T10:34:59.350Z,44.26
2024-02-12T10:36:11.161Z,44.24
2024-02-12T10:37:22.867Z,44.16
2024-02-12T10:38:37.410Z,44.01
2024-02-12T10:39:46.866Z,43.93
2024-02-12T10:41:11.283Z,43.33
2024-02-12T10:42:25.067Z,42.28
2024-02-12T10:43:35.999Z,41.80
2024-02-12T10:44:45.772Z,41.45
2024-02-12T10:45:53.445Z,41.42
2024-02-12T10:47:00.438Z,41.66
2024-02-12T10:48:12.324Z,41.67
2024-02-12T10:49:20.478Z,41.25
2024-02-12T10:50:29.818Z,41.21
2024-02-12T10:51:40.616Z,41.01
2024-02-12T10:52:50.393Z,40.95
2024-02-12T10:54:00.678Z,41.16
2024-02-12T10:55:11.296Z,40.90
2024-02-12T10:56:18.044Z,40.84
2024-02-12T10:57:25.951Z,40.32
2024-02-12T10:58:34.230Z,40.37
2024-02-12T10:59:41.081Z,40.29
2024-02-12T11:01:04.021Z,40.28
2024-02-12T11:02:15.058Z,40.63
2024-02-12T11:03:34.779Z,40.57
2024-02-12T11:04:41.724Z,40.56
2024-02-12T11:05:52.285Z,40.79
2024-02-12T11:07:14.919Z,40.91
2024-02-12T11:08:25.043Z,41.23
2024-02-12T11:09:35.242Z,41.46
2024-02-12T11:10:45.184Z,41.61
2024-02-12T11:11:51.769Z,42.04
2024-02-12T11:13:06.549Z,42.05
2024-02-12T11:14:17.772Z,41.96
2024-02-12T11:15:29.401Z,41.72
2024-02-12T11:16:40.488Z,41.73
2024-02-12T11:17:49.918Z,42.07
2024-02-12T11:19:03.667Z,42.05
2024-02-12T11:20:19.540Z,42.02
2024-02-12T11:21:28.639Z,42.01
2024-02-12T11:22:35.820Z,41.60
2024-02-12T11:23:43.532Z,41.78
2024-02-12T11:24:52.234Z,41.94
2024-02-12T11:26:04.356Z,41.55
2024-02-12T11:27:11.305Z,41.52
2024-02-12T11:28:21.060Z,41.89
2024-02-12T11:29:27.887Z,41.44
2024-02-12T11:30:42.477Z,41.41
2024-02-12T11:31:50.179Z,41.65
2024-02-12T11:33:01.260Z,41.32
2024-02-12T11:34:20.804Z,41.21
2024-02-12T11:35:29.240Z,41.30
2024-02-12T11:36:37.797Z,40.85
2024-02-12T11:37:47.550Z,41.14
2024-02-12T11:38:55.573Z,41.19
2024-02-12T11:40:05.356Z,41.54
2024-02-12T11:41:13.943Z,41.75
2024-02-12T11:42:24.052Z,41.77
2024-02-12T11:43:33.417Z,41.92
2024-02-12T11:44:41.151Z,41.80
2024-02-12T11:45:47.714Z,41.89
2024-02-12T11:47:03.650Z,41.79
2024-02-12T11:48:12.390Z,41.84
2024-02-12T11:49:19.497Z,41.78
2024-02-12T11:50:29.112Z,41.82
2024-02-12T11:51:38.338Z,41.86
2024-02-12T11:52:44.696Z,42.11
2024-02-12T11:53:53.558Z,42.21
2024-02-12T11:55:08.591Z,42.29
2024-02-12T11:56:16.499Z,42.27
2024-02-12T11:57:25.931Z,42.43
2024-02-12T11:58:32.910Z,42.50
2024-02-12T11:59:40.730Z,42.75
2024-02-12T12:00:48.278Z,42.87
2024-02-12T12:01:54.809Z,42.86
2024-02-12T12:03:05.036Z,42.97
2024-02-12T12:04:13.690Z,43.16
2024-02-12T12:05:25.002Z,43.20
2024-02-12T12:06:35.374Z,43.48
2024-02-12T12:07:44.606Z,43.53
2024-02-12T12:08:53.092Z,43.59
2024-02-12T12:10:11.497Z,43.78
2024-02-12T12:11:22.689Z,43.90
2024-02-12T12:12:35.442Z,44.01
2024-02-12T12:13:43.511Z,44.18
2024-02-12T12:14:51.318Z,44.32
2024-02-12T12:15:59.606Z,44.32
2024-02-12T12:17:29.107Z,44.53
2024-02-12T12:18:36.302Z,44.63
2024-02-12T12:19:43.745Z,44.84
2024-02-12T12:20:55.012Z,44.95
2024-02-12T12:22:03.664Z,45.13
2024-02-12T12:23:11.449Z,45.34
2024-02-12T12:24:18.078Z,45.66
2024-02-12T12:25:25.434Z,45.75
2024-02-12T12:26:32.547Z,45.96
2024-02-12T12:27:39.986Z,46.28
2024-02-12T12:28:46.472Z,46.56
2024-02-12T12:29:58.847Z,46.86
2024-02-12T12:31:06.366Z,47.04
2024-02-12T12:32:15.444Z,47.33
2024-02-12T12:33:22.613Z,47.69
2024-02-12T12:34:31.107Z,47.84
2024-02-12T12:35:39.401Z,47.81
2024-02-12T12:36:46.273Z,48.02
2024-02-12T12:37:53.416Z,48.29
2024-02-12T12:39:00.216Z,48.17
2024-02-12T12:40:23.131Z,48.21
2024-02-12T12:41:31.773Z,48.36
2024-02-12T12:42:39.342Z,48.68
2024-02-12T12:43:45.847Z,48.76
2024-02-12T12:44:56.518Z,48.86
2024-02-12T12:46:03.985Z,49.06
2024-02-12T12:47:14.076Z,49.10
2024-02-12T12:48:23.888Z,49.08
2024-02-12T12:49:31.250Z,49.33
2024-02-12T12:50:39.802Z,49.31
2024-02-12T12:52:06.111Z,49.30
2024-02-12T12:53:13.093Z,49.30
2024-02-12T12:54:21.976Z,49.21
2024-02-12T12:55:28.619Z,49.30
2024-02-12T12:56:35.960Z,49.30
2024-02-12T12:57:45.807Z,49.18
2024-02-12T12:58:52.946Z,49.28
2024-02-12T13:00:01.081Z,49.37
2024-02-12T13:01:11.623Z,49.23
2024-02-12T13:02:21.777Z,49.24
2024-02-12T13:03:30.048Z,49.29
2024-02-12T13:04:42.223Z,49.36
2024-02-12T13:05:49.585Z,49.58
2024-02-12T13:06:56.408Z,49.47
2024-02-12T13:08:18.294Z,49.53
2024-02-12T13:09:29.620Z,49.36
2024-02-12T13:10:42.186Z,49.46
2024-02-12T13:11:54.061Z,49.43
2024-02-12T13:13:00.901Z,49.54
2024-02-12T13:14:08.947Z,49.38
2024-02-12T13:15:16.371Z,49.41
2024-02-12T13:16:23.193Z,49.45
2024-02-12T13:17:34.592Z,49.47
2024-02-12T13:18:42.117Z,49.60
2024-02-12T13:19:49.230Z,49.76
2024-02-12T13:20:58.473Z,49.77
2024-02-12T13:22:09.198Z,49.76
2024-02-12T13:23:16.377Z,49.94
2024-02-12T13:24:23.207Z,49.92
2024-02-12T13:25:36.146Z,49.88
2024-02-12T13:26:45.007Z,49.81
2024-02-12T13:27:51.493Z,49.91
2024-02-12T13:28:59.002Z,49.77
2024-02-12T13:30:07.621Z,49.68
2024-02-12T13:31:16.155Z,49.63
2024-02-12T13:32:24.223Z,49.59
2024-02-12T13:33:32.636Z,49.52
2024-02-12T13:34:42.350Z,49.50
2024-02-12T13:35:50.688Z,49.36
2024-02-12T13:36:57.800Z,49.50
2024-02-12T13:38:05.313Z,49.41
2024-02-12T13:39:15.474Z,49.44
2024-02-12T13:40:25.857Z,49.41
2024-02-12T13:41:37.107Z,49.38
2024-02-12T13:42:45.344Z,49.51
2024-02-12T13:43:53.227Z,49.34
2024-02-12T13:44:59.804Z,49.41
2024-02-12T13:46:08.204Z,49.35
2024-02-12T13:47:15.099Z,49.45
2024-02-12T13:48:23.370Z,49.58
2024-02-12T13:49:30.961Z,49.53
2024-02-12T13:50:37.682Z,49.88
2024-02-12T13:51:44.350Z,50.15
2024-02-12T13:52:51.797Z,50.57
2024-02-12T13:53:59.304Z,51.44
2024-02-12T13:55:14.778Z,51.84
2024-02-12T13:56:26.462Z,52.88
2024-02-12T13:57:36.308Z,53.58
2024-02-12T13:58:51.490Z,53.62
2024-02-12T14:01:23.907Z,54.80
2024-02-12T14:02:38.639Z,55.22
2024-02-12T14:03:46.665Z,55.11
2024-02-12T14:04:55.667Z,55.04
2024-02-12T14:06:02.351Z,55.44
2024-02-12T14:07:12.298Z,55.95
2024-02-12T14:08:20.723Z,56.49
2024-02-12T14:09:27.545Z,57.40
2024-02-12T14:10:34.701Z,58.16
2024-02-12T14:11:42.046Z,58.65
2024-02-12T14:12:49.778Z,59.14
2024-02-12T14:13:56.594Z,59.66
2024-02-12T14:15:09.146Z,60.34
2024-02-12T14:16:18.870Z,60.75
2024-02-12T14:17:25.719Z,61.69
2024-02-12T14:18:32.662Z,62.90
2024-02-12T14:19:45.426Z,63.23
2024-02-12T14:20:55.588Z,63.32
2024-02-12T14:22:02.215Z,64.18
2024-02-12T14:23:12.199Z,65.56
2024-02-12T14:24:19.757Z,65.68
2024-02-12T14:25:30.485Z,66.06
2024-02-12T14:26:37.370Z,66.15
2024-02-12T14:27:44.920Z,66.49
2024-02-12T14:28:52.401Z,66.60
2024-02-12T14:29:59.386Z,66.73
2024-02-12T14:31:07.138Z,66.98
2024-02-12T14:32:38.906Z,67.25
2024-02-12T14:33:42.314Z,67.72
2024-02-12T14:34:49.425Z,68.58
2024-02-12T14:35:56.207Z,68.88
2024-02-12T14:37:03.511Z,69.34
2024-02-12T14:38:11.784Z,69.64
2024-02-12T14:39:19.309Z,69.94
2024-02-12T14:40:27.080Z,70.11
2024-02-12T14:41:34.994Z,70.71
2024-02-12T14:42:45.288Z,70.81
2024-02-12T14:43:51.804Z,71.04
2024-02-12T14:44:58.780Z,71.10
2024-02-12T14:46:05.655Z,71.56
2024-02-12T14:47:12.185Z,71.86
2024-02-12T14:48:19.502Z,71.96